createdAt,value
2022-08-01T00:00:02.341Z,0.00
2022-08-01T00:00:33.490Z,0.00
2022-08-01T00:01:06.456Z,0.00
2022-08-01T00:01:35.144Z,0.00
2022-08-01T00:01:53.826Z,0.00
2022-08-01T00:02:25.465Z,0.00
2022-08-01T00:02:42.355Z,0.00
2022-08-01T00:03:14.479Z,0.00
2022-08-01T00:03:34.108Z,0.00
2022-08-01T00:04:02.179Z,0.00
2022-08-01T00:04:33.481Z,0.00
2022-08-01T00:05:06.788Z,0.00
2022-08-01T00:05:34.037Z,0.00
2022-08-01T00:05:53.487Z,0.00
2022-08-01T00:06:25.547Z,0.00
2022-08-01T00:06:42.356Z,0.00
2022-08-01T00:07:16.072Z,0.00
2022-08-01T00:07:34.138Z,0.00
2022-08-01T00:08:02.193Z,0.00
2022-08-01T00:08:33.566Z,0.00
2022-08-01T00:09:11.725Z,0.00
2022-08-01T00:09:35.030Z,0.00
2022-08-01T00:09:53.529Z,0.00
2022-08-01T00:10:25.450Z,0.00
2022-08-01T00:10:42.105Z,0.00
2022-08-01T00:11:14.822Z,0.00
2022-08-01T00:11:39.197Z,0.00
2022-08-01T00:12:02.185Z,0.00
2022-08-01T00:12:33.513Z,0.00
2022-08-01T00:13:05.722Z,0.00
2022-08-01T00:13:36.135Z,0.00
2022-08-01T00:13:53.492Z,0.00
2022-08-01T00:14:32.476Z,0.00
2022-08-01T00:14:41.948Z,0.00
2022-08-01T00:15:15.008Z,0.00
2022-08-01T00:15:34.518Z,0.00
2022-08-01T00:16:03.736Z,0.00
2022-08-01T00:16:33.632Z,0.00
2022-08-01T00:17:07.396Z,0.00
2022-08-01T00:17:35.414Z,0.00
2022-08-01T00:17:53.518Z,0.00
2022-08-01T00:18:25.439Z,0.00
2022-08-01T00:18:41.964Z,0.00
2022-08-01T00:19:13.557Z,0.00
2022-08-01T00:19:34.061Z,0.00
2022-08-01T00:20:02.251Z,0.00
2022-08-01T00:20:33.594Z,0.00
2022-08-01T00:21:05.467Z,0.00
2022-08-01T00:21:34.063Z,0.00
2022-08-01T00:21:54.349Z,0.00
2022-08-01T00:22:30.585Z,0.00
2022-08-01T00:22:42.033Z,0.00
2022-08-01T00:23:13.587Z,0.00
2022-08-01T00:23:34.132Z,0.00
2022-08-01T00:24:02.104Z,0.00
2022-08-01T00:24:33.435Z,0.00
2022-08-01T00:25:06.592Z,0.00
2022-08-01T00:25:39.053Z,0.00
2022-08-01T00:25:53.439Z,0.00
2022-08-01T00:26:26.350Z,0.00
2022-08-01T00:26:59.167Z,0.00
2022-08-01T00:27:29.541Z,0.00
2022-08-01T00:28:02.261Z,0.00
2022-08-01T00:28:33.703Z,0.00
2022-08-01T00:29:05.500Z,0.00
2022-08-01T00:30:12.166Z,0.00
2022-08-01T00:30:26.196Z,0.00
2022-08-01T00:30:57.510Z,0.00
2022-08-01T00:31:29.421Z,0.00
2022-08-01T00:32:02.334Z,0.00
2022-08-01T00:32:33.429Z,0.00
2022-08-01T00:33:06.493Z,0.00
2022-08-01T00:33:34.245Z,0.00
2022-08-01T00:33:53.476Z,0.00
2022-08-01T00:34:25.448Z,0.00
2022-08-01T00:34:42.012Z,0.00
2022-08-01T00:35:13.763Z,0.00
2022-08-01T00:35:34.367Z,0.00
2022-08-01T00:36:03.780Z,0.00
2022-08-01T00:36:33.481Z,0.00
2022-08-01T00:37:05.815Z,0.00
2022-08-01T00:37:34.045Z,0.00
2022-08-01T00:37:54.256Z,0.00
2022-08-01T00:38:26.340Z,0.00
2022-08-01T00:38:57.443Z,0.00
2022-08-01T00:39:29.398Z,0.00
2022-08-01T00:40:02.837Z,0.00
2022-08-01T00:40:34.084Z,0.00
2022-08-01T00:41:05.402Z,0.00
2022-08-01T00:41:34.082Z,0.00
2022-08-01T00:41:59.872Z,0.00
2022-08-01T00:42:25.552Z,0.00
2022-08-01T00:42:48.572Z,0.00
2022-08-01T00:43:13.564Z,0.00
2022-08-01T00:43:34.042Z,0.00
2022-08-01T00:44:02.127Z,0.00
2022-08-01T00:44:33.605Z,0.00
2022-08-01T00:45:06.807Z,0.00
2022-08-01T00:45:34.063Z,0.00
2022-08-01T00:45:53.435Z,0.00
2022-08-01T00:46:25.515Z,0.00
2022-08-01T00:46:43.030Z,0.00
2022-08-01T00:47:14.914Z,0.00
2022-08-01T00:47:35.024Z,0.00
2022-08-01T00:48:02.121Z,0.00
2022-08-01T00:48:33.509Z,0.00
2022-08-01T00:49:06.515Z,0.00
2022-08-01T00:49:34.219Z,0.00
2022-08-01T00:49:55.256Z,0.00
2022-08-01T00:50:26.987Z,0.00
2022-08-01T00:50:58.043Z,0.00
2022-08-01T00:51:29.478Z,0.00
2022-08-01T00:52:02.562Z,0.00
2022-08-01T00:52:33.578Z,0.00
2022-08-01T00:53:05.426Z,0.00
2022-08-01T00:53:51.843Z,0.00
2022-08-01T00:54:09.519Z,0.00
2022-08-01T00:54:34.035Z,0.00
2022-08-01T00:55:03.315Z,0.00
2022-08-01T00:55:29.392Z,0.00
2022-08-01T00:56:02.446Z,0.00
2022-08-01T00:56:34.116Z,0.00
2022-08-01T00:57:05.535Z,0.00
2022-08-01T00:58:03.269Z,0.00
2022-08-01T00:58:12.476Z,0.00
2022-08-01T00:58:34.811Z,0.00
2022-08-01T00:58:58.646Z,0.00
2022-08-01T00:59:29.384Z,0.00
2022-08-01T01:00:02.843Z,0.00
2022-08-01T01:00:34.904Z,0.00
2022-08-01T01:01:07.175Z,0.00
2022-08-01T01:01:39.824Z,0.00
2022-08-01T01:02:15.809Z,0.00
2022-08-01T01:02:34.054Z,0.00
2022-08-01T01:02:57.459Z,0.00
2022-08-01T01:03:56.286Z,0.00
2022-08-01T01:04:02.119Z,0.00
2022-08-01T01:04:34.483Z,0.00
2022-08-01T01:05:05.460Z,0.00
2022-08-01T01:05:37.474Z,0.00
2022-08-01T01:05:53.462Z,0.00
2022-08-01T01:06:25.440Z,0.00
2022-08-01T01:06:42.079Z,0.00
2022-08-01T01:07:18.459Z,0.00
2022-08-01T01:07:34.990Z,0.00
2022-08-01T01:08:02.108Z,0.00
2022-08-01T01:08:33.375Z,0.00
2022-08-01T01:09:05.443Z,0.00
2022-08-01T01:09:36.595Z,0.00
2022-08-01T01:10:09.387Z,0.00
2022-08-01T01:10:34.085Z,0.00
2022-08-01T01:10:57.444Z,0.00
2022-08-01T01:11:29.399Z,0.00
2022-08-01T01:12:02.054Z,0.00
2022-08-01T01:12:38.491Z,0.00
2022-08-01T01:13:05.736Z,0.00
2022-08-01T01:13:34.025Z,0.00
2022-08-01T01:13:53.607Z,0.00
2022-08-01T01:14:25.385Z,0.00
2022-08-01T01:14:42.022Z,0.00
2022-08-01T01:15:13.421Z,0.00
2022-08-01T01:15:34.024Z,0.00
2022-08-01T01:16:03.722Z,0.00
2022-08-01T01:16:34.308Z,0.00
2022-08-01T01:17:06.426Z,0.00
2022-08-01T01:17:51.083Z,0.00
2022-08-01T01:18:10.179Z,0.00
2022-08-01T01:18:35.051Z,0.00
2022-08-01T01:18:58.433Z,0.00
2022-08-01T01:19:29.351Z,0.00
2022-08-01T01:20:02.107Z,0.00
2022-08-01T01:20:33.458Z,0.00
2022-08-01T01:21:05.755Z,0.00
2022-08-01T01:21:39.214Z,0.00
2022-08-01T01:21:53.378Z,0.00
2022-08-01T01:22:25.373Z,0.00
2022-08-01T01:22:42.084Z,0.00
2022-08-01T01:23:13.426Z,0.00
2022-08-01T01:23:33.906Z,0.00
2022-08-01T01:24:02.739Z,0.00
2022-08-01T01:24:33.470Z,0.00
2022-08-01T01:25:05.448Z,0.00
2022-08-01T01:25:34.019Z,0.00
2022-08-01T01:25:53.349Z,0.00
2022-08-01T01:26:25.985Z,0.00
2022-08-01T01:26:57.420Z,0.00
2022-08-01T01:27:30.573Z,0.00
2022-08-01T01:28:01.910Z,0.00
2022-08-01T01:28:33.505Z,0.00
2022-08-01T01:29:05.414Z,0.00
2022-08-01T01:30:00.022Z,0.00
2022-08-01T01:30:11.029Z,0.00
2022-08-01T01:30:34.045Z,0.00
2022-08-01T01:30:57.480Z,0.00
2022-08-01T01:31:30.091Z,0.00
2022-08-01T01:32:02.433Z,0.00
2022-08-01T01:32:33.607Z,0.00
2022-08-01T01:33:05.381Z,0.00
2022-08-01T01:33:34.046Z,0.00
2022-08-01T01:33:56.776Z,0.00
2022-08-01T01:34:26.382Z,0.00
2022-08-01T01:34:57.523Z,0.00
2022-08-01T01:35:29.487Z,0.00
2022-08-01T01:36:02.281Z,0.00
2022-08-01T01:36:34.306Z,0.00
2022-08-01T01:37:05.345Z,0.00
2022-08-01T01:37:34.153Z,0.00
2022-08-01T01:37:53.346Z,0.00
2022-08-01T01:38:26.518Z,0.00
2022-08-01T01:38:58.563Z,0.00
2022-08-01T01:39:29.408Z,0.00
2022-08-01T01:40:02.305Z,0.00
2022-08-01T01:40:33.553Z,0.00
2022-08-01T01:41:05.347Z,0.00
2022-08-01T01:41:34.204Z,0.00
2022-08-01T01:41:53.357Z,0.00
2022-08-01T01:42:25.427Z,0.00
2022-08-01T01:42:42.094Z,0.00
2022-08-01T01:43:13.361Z,0.00
2022-08-01T01:43:36.406Z,0.00
2022-08-01T01:44:02.707Z,0.00
2022-08-01T01:44:35.381Z,0.00
2022-08-01T01:45:05.376Z,0.00
2022-08-01T01:45:34.097Z,0.00
2022-08-01T01:45:54.166Z,0.00
2022-08-01T01:46:30.521Z,0.00
2022-08-01T01:46:42.254Z,0.00
2022-08-01T01:47:14.290Z,0.00
2022-08-01T01:47:35.043Z,0.00
2022-08-01T01:48:02.039Z,0.00
2022-08-01T01:48:33.469Z,0.00
2022-08-01T01:49:06.509Z,0.00
2022-08-01T01:49:35.219Z,0.00
2022-08-01T01:49:53.456Z,0.00
2022-08-01T01:50:25.374Z,0.00
2022-08-01T01:50:42.459Z,0.00
2022-08-01T01:51:13.447Z,0.00
2022-08-01T01:51:34.867Z,0.00
2022-08-01T01:52:03.734Z,0.00
2022-08-01T01:52:34.293Z,0.00
2022-08-01T01:53:05.326Z,0.00
2022-08-01T01:53:33.993Z,0.00
2022-08-01T01:53:54.003Z,0.00
2022-08-01T01:54:25.341Z,0.00
2022-08-01T01:54:42.092Z,0.00
2022-08-01T01:55:13.349Z,0.00
2022-08-01T01:55:34.035Z,0.00
2022-08-01T01:56:02.005Z,0.00
2022-08-01T01:56:33.504Z,0.00
2022-08-01T01:57:06.131Z,0.00
2022-08-01T01:57:34.291Z,0.00
2022-08-01T01:57:53.335Z,0.00
2022-08-01T01:58:25.334Z,0.00
2022-08-01T01:58:42.100Z,0.00
2022-08-01T01:59:13.325Z,0.00
2022-08-01T01:59:34.138Z,0.00
2022-08-01T02:00:02.843Z,0.00
2022-08-01T02:00:33.361Z,0.00
2022-08-01T02:01:05.319Z,0.00
2022-08-01T02:01:58.661Z,0.00
2022-08-01T02:02:10.481Z,0.00
2022-08-01T02:02:36.673Z,0.00
2022-08-01T02:02:57.473Z,0.00
2022-08-01T02:03:31.651Z,0.00
2022-08-01T02:04:02.682Z,0.00
2022-08-01T02:04:33.371Z,0.00
2022-08-01T02:05:05.391Z,0.00
2022-08-01T02:05:34.134Z,0.00
2022-08-01T02:05:53.313Z,0.00
2022-08-01T02:06:25.380Z,0.00
2022-08-01T02:06:42.175Z,0.00
2022-08-01T02:07:14.017Z,0.00
2022-08-01T02:07:34.546Z,0.00
2022-08-01T02:08:02.706Z,0.00
2022-08-01T02:08:33.342Z,0.00
2022-08-01T02:09:05.437Z,0.00
2022-08-01T02:09:34.006Z,0.00
2022-08-01T02:09:53.358Z,0.00
2022-08-01T02:10:28.666Z,0.00
2022-08-01T02:10:42.166Z,0.00
2022-08-01T02:11:13.479Z,0.00
2022-08-01T02:11:34.062Z,0.00
2022-08-01T02:12:07.440Z,0.00
2022-08-01T02:12:34.396Z,0.00
2022-08-01T02:13:05.539Z,0.00
2022-08-01T02:13:34.228Z,0.00
2022-08-01T02:13:53.462Z,0.00
2022-08-01T02:14:30.378Z,0.00
2022-08-01T02:14:57.546Z,0.00
2022-08-01T02:15:29.411Z,0.00
2022-08-01T02:16:02.149Z,0.00
2022-08-01T02:16:34.013Z,0.00
2022-08-01T02:17:06.587Z,0.00
2022-08-01T02:17:34.142Z,0.00
2022-08-01T02:17:54.149Z,0.00
2022-08-01T02:18:25.339Z,0.00
2022-08-01T02:18:43.066Z,0.00
2022-08-01T02:19:14.204Z,0.00
2022-08-01T02:19:38.096Z,0.00
2022-08-01T02:20:07.118Z,0.00
2022-08-01T02:20:33.571Z,0.00
2022-08-01T02:21:05.279Z,0.00
2022-08-01T02:21:34.044Z,0.00
2022-08-01T02:21:53.358Z,0.00
2022-08-01T02:22:25.921Z,0.00
2022-08-01T02:22:58.118Z,0.00
2022-08-01T02:23:29.329Z,0.00
2022-08-01T02:24:05.822Z,0.00
2022-08-01T02:24:33.525Z,0.00
2022-08-01T02:25:05.429Z,0.00
2022-08-01T02:25:34.063Z,0.00
2022-08-01T02:26:08.649Z,0.00
2022-08-01T02:26:25.279Z,0.00
2022-08-01T02:26:42.094Z,0.00
2022-08-01T02:27:13.809Z,0.00
2022-08-01T02:27:34.238Z,0.00
2022-08-01T02:28:02.921Z,0.00
2022-08-01T02:28:33.423Z,0.00
2022-08-01T02:29:06.266Z,0.00
2022-08-01T02:29:35.805Z,0.00
2022-08-01T02:29:53.297Z,0.00
2022-08-01T02:30:25.395Z,0.00
2022-08-01T02:30:42.115Z,0.00
2022-08-01T02:31:18.423Z,0.00
2022-08-01T02:31:39.947Z,0.00
2022-08-01T02:32:01.775Z,0.00
2022-08-01T02:32:34.918Z,0.00
2022-08-01T02:33:05.370Z,0.00
2022-08-01T02:33:34.032Z,0.00
2022-08-01T02:33:54.086Z,0.00
2022-08-01T02:34:25.240Z,0.00
2022-08-01T02:34:42.144Z,0.00
2022-08-01T02:35:13.312Z,0.00
2022-08-01T02:35:34.210Z,0.00
2022-08-01T02:36:32.312Z,0.00
2022-08-01T02:36:55.270Z,0.00
2022-08-01T02:37:21.976Z,0.00
2022-08-01T02:37:44.433Z,0.00
2022-08-01T02:38:09.266Z,0.00
2022-08-01T02:38:34.056Z,0.00
2022-08-01T02:38:57.273Z,0.00
2022-08-01T02:39:29.287Z,0.00
2022-08-01T02:40:01.584Z,0.00
2022-08-01T02:40:34.676Z,0.00
2022-08-01T02:41:05.340Z,0.00
2022-08-01T02:41:34.117Z,0.00
2022-08-01T02:41:53.291Z,0.00
2022-08-01T02:42:31.337Z,0.00
2022-08-01T02:42:57.315Z,0.00
2022-08-01T02:43:34.225Z,0.00
2022-08-01T02:44:01.978Z,0.00
2022-08-01T02:44:33.421Z,0.00
2022-08-01T02:45:05.392Z,0.00
2022-08-01T02:45:34.173Z,0.00
2022-08-01T02:45:53.311Z,0.00
2022-08-01T02:46:26.621Z,0.00
2022-08-01T02:47:03.606Z,0.00
2022-08-01T02:47:30.273Z,0.00
2022-08-01T02:48:06.756Z,0.00
2022-08-01T02:48:33.232Z,0.00
2022-08-01T02:49:06.375Z,0.00
2022-08-01T02:49:34.206Z,0.00
2022-08-01T02:49:53.931Z,0.00
2022-08-01T02:50:25.273Z,0.00
2022-08-01T02:50:42.088Z,0.00
2022-08-01T02:51:14.248Z,0.00
2022-08-01T02:51:35.550Z,0.00
2022-08-01T02:52:02.280Z,0.00
2022-08-01T02:52:33.246Z,0.00
2022-08-01T02:53:05.226Z,0.00
2022-08-01T02:53:44.310Z,0.00
2022-08-01T02:53:53.430Z,0.00
2022-08-01T02:54:25.348Z,0.00
2022-08-01T02:54:42.311Z,0.00
2022-08-01T02:55:13.265Z,0.00
2022-08-01T02:55:34.038Z,0.00
2022-08-01T02:56:02.003Z,0.00
2022-08-01T02:56:36.569Z,0.00
2022-08-01T02:57:05.364Z,0.00
2022-08-01T02:57:42.095Z,0.00
2022-08-01T02:58:11.612Z,0.00
2022-08-01T02:58:34.519Z,0.00
2022-08-01T02:58:57.414Z,0.00
2022-08-01T02:59:30.075Z,0.00
2022-08-01T03:00:02.102Z,0.00
2022-08-01T03:00:33.362Z,0.00
2022-08-01T03:01:05.297Z,0.00
2022-08-01T03:01:34.314Z,0.00
2022-08-01T03:01:55.153Z,0.00
2022-08-01T03:02:25.277Z,0.00
2022-08-01T03:02:58.331Z,0.00
2022-08-01T03:03:30.334Z,0.00
2022-08-01T03:04:02.107Z,0.00
2022-08-01T03:04:33.273Z,0.00
2022-08-01T03:05:05.293Z,0.00
2022-08-01T03:05:35.152Z,0.00
2022-08-01T03:05:58.337Z,0.00
2022-08-01T03:06:26.031Z,0.00
2022-08-01T03:06:57.508Z,0.00
2022-08-01T03:07:34.369Z,0.00
2022-08-01T03:08:03.811Z,0.00
2022-08-01T03:08:33.310Z,0.00
2022-08-01T03:09:05.274Z,0.00
2022-08-01T03:09:35.075Z,0.00
2022-08-01T03:09:53.244Z,0.00
2022-08-01T03:10:25.238Z,0.00
2022-08-01T03:10:57.479Z,0.00
2022-08-01T03:11:34.421Z,0.00
2022-08-01T03:12:01.779Z,0.00
2022-08-01T03:12:33.241Z,0.00
2022-08-01T03:13:06.424Z,0.00
2022-08-01T03:13:34.154Z,0.00
2022-08-01T03:13:53.297Z,0.00
2022-08-01T03:14:25.225Z,0.00
2022-08-01T03:14:57.415Z,0.00
2022-08-01T03:15:29.388Z,0.00
2022-08-01T03:16:02.885Z,0.00
2022-08-01T03:16:33.260Z,0.00
2022-08-01T03:17:10.336Z,0.00
2022-08-01T03:17:35.110Z,0.00
2022-08-01T03:17:53.327Z,0.00
2022-08-01T03:18:25.220Z,0.00
2022-08-01T03:18:42.326Z,0.00
2022-08-01T03:19:13.318Z,0.00
2022-08-01T03:19:34.979Z,0.00
2022-08-01T03:20:01.741Z,0.00
2022-08-01T03:20:33.256Z,0.00
2022-08-01T03:21:05.287Z,0.00
2022-08-01T03:21:33.992Z,0.00
2022-08-01T03:21:54.223Z,0.00
2022-08-01T03:22:25.306Z,0.00
2022-08-01T03:22:57.517Z,0.00
2022-08-01T03:23:38.010Z,0.00
2022-08-01T03:24:01.761Z,0.00
2022-08-01T03:24:33.293Z,0.00
2022-08-01T03:25:05.334Z,0.00
2022-08-01T03:25:34.171Z,0.00
2022-08-01T03:25:54.352Z,0.00
2022-08-01T03:26:25.278Z,0.00
2022-08-01T03:26:57.450Z,0.00
2022-08-01T03:27:29.268Z,0.00
2022-08-01T03:28:01.866Z,0.00
2022-08-01T03:28:33.365Z,0.00
2022-08-01T03:29:05.225Z,0.00
2022-08-01T03:29:34.112Z,0.00
2022-08-01T03:29:53.361Z,0.00
2022-08-01T03:30:25.380Z,0.00
2022-08-01T03:30:42.947Z,0.00
2022-08-01T03:31:13.324Z,0.00
2022-08-01T03:31:34.105Z,0.00
2022-08-01T03:32:01.720Z,0.00
2022-08-01T03:32:35.498Z,0.00
2022-08-01T03:33:05.479Z,0.00
2022-08-01T03:33:35.067Z,0.00
2022-08-01T03:34:01.706Z,0.00
2022-08-01T03:34:25.265Z,0.00
2022-08-01T03:34:42.234Z,0.00
2022-08-01T03:35:13.293Z,0.00
2022-08-01T03:35:34.194Z,0.00
2022-08-01T03:36:01.924Z,0.00
2022-08-01T03:36:34.086Z,0.00
2022-08-01T03:37:06.017Z,0.00
2022-08-01T03:37:34.082Z,0.00
2022-08-01T03:38:15.382Z,0.00
2022-08-01T03:38:31.127Z,0.00
2022-08-01T03:38:57.256Z,0.00
2022-08-01T03:39:34.367Z,0.00
2022-08-01T03:40:01.953Z,0.00
2022-08-01T03:40:33.378Z,0.00
2022-08-01T03:41:05.301Z,0.00
2022-08-01T03:41:34.332Z,0.00
2022-08-01T03:42:04.145Z,0.00
2022-08-01T03:42:25.332Z,0.00
2022-08-01T03:42:42.196Z,0.00
2022-08-01T03:43:13.292Z,0.00
2022-08-01T03:43:34.946Z,0.00
2022-08-01T03:44:06.894Z,0.00
2022-08-01T03:44:33.216Z,0.00
2022-08-01T03:45:13.473Z,0.00
2022-08-01T03:45:34.422Z,0.00
2022-08-01T03:45:53.271Z,0.00
2022-08-01T03:46:26.059Z,0.00
2022-08-01T03:46:57.360Z,0.00
2022-08-01T03:47:29.363Z,0.00
2022-08-01T03:48:02.967Z,0.00
2022-08-01T03:48:36.007Z,0.00
2022-08-01T03:49:06.202Z,0.00
2022-08-01T03:49:35.337Z,0.00
2022-08-01T03:49:53.395Z,0.00
2022-08-01T03:50:25.209Z,0.00
2022-08-01T03:50:42.347Z,0.00
2022-08-01T03:51:13.298Z,0.00
2022-08-01T03:51:34.279Z,0.00
2022-08-01T03:52:01.725Z,0.00
2022-08-01T03:52:33.229Z,0.00
2022-08-01T03:53:06.081Z,0.00
2022-08-01T03:53:35.481Z,0.00
2022-08-01T03:53:53.285Z,0.00
2022-08-01T03:54:25.373Z,0.00
2022-08-01T03:54:42.235Z,0.36
2022-08-01T03:55:13.237Z,0.36
2022-08-01T03:55:35.748Z,0.36
2022-08-01T03:56:01.650Z,0.36
2022-08-01T03:56:33.423Z,0.85
2022-08-01T03:57:05.344Z,0.85
2022-08-01T03:57:36.922Z,0.85
2022-08-01T03:57:53.363Z,0.85
2022-08-01T03:58:25.384Z,1.22
2022-08-01T03:58:58.220Z,0.36
2022-08-01T03:59:29.367Z,1.22
2022-08-01T04:00:03.924Z,2.08
2022-08-01T04:00:33.509Z,0.85
2022-08-01T04:01:05.378Z,1.22
2022-08-01T04:01:34.346Z,1.71
2022-08-01T04:01:58.451Z,1.22
2022-08-01T04:02:25.386Z,1.71
2022-08-01T04:02:57.588Z,2.08
2022-08-01T04:03:29.884Z,2.57
2022-08-01T04:04:03.366Z,2.94
2022-08-01T04:04:35.126Z,2.94
2022-08-01T04:05:06.407Z,2.57
2022-08-01T04:05:34.321Z,2.94
2022-08-01T04:05:53.390Z,2.94
2022-08-01T04:06:25.489Z,3.43
2022-08-01T04:06:43.098Z,3.43
2022-08-01T04:07:15.629Z,3.79
2022-08-01T04:07:34.460Z,3.79
2022-08-01T04:08:03.004Z,4.28
2022-08-01T04:08:33.503Z,4.28
2022-08-01T04:09:10.184Z,3.79
2022-08-01T04:09:38.134Z,4.77
2022-08-01T04:09:53.303Z,5.14
2022-08-01T04:10:25.354Z,5.63
2022-08-01T04:10:42.757Z,5.99
2022-08-01T04:11:13.384Z,5.63
2022-08-01T04:11:34.438Z,5.63
2022-08-01T04:12:01.857Z,5.99
2022-08-01T04:12:35.326Z,6.48
2022-08-01T04:13:05.854Z,5.99
2022-08-01T04:13:36.821Z,6.85
2022-08-01T04:13:53.319Z,6.85
2022-08-01T04:14:25.469Z,8.19
2022-08-01T04:14:57.689Z,8.56
2022-08-01T04:15:29.738Z,8.19
2022-08-01T04:16:01.831Z,9.54
2022-08-01T04:16:33.461Z,9.54
2022-08-01T04:17:05.381Z,8.56
2022-08-01T04:17:34.554Z,9.54
2022-08-01T04:17:53.374Z,8.56
2022-08-01T04:18:25.354Z,10.39
2022-08-01T04:18:57.550Z,10.77
2022-08-01T04:19:29.493Z,10.39
2022-08-01T04:20:01.938Z,10.77
2022-08-01T04:20:34.077Z,10.77
2022-08-01T04:21:05.453Z,11.25
2022-08-01T04:21:34.292Z,11.62
2022-08-01T04:21:53.318Z,11.62
2022-08-01T04:22:25.269Z,12.97
2022-08-01T04:22:42.594Z,12.48
2022-08-01T04:23:13.370Z,12.11
2022-08-01T04:23:34.497Z,12.48
2022-08-01T04:24:02.303Z,13.33
2022-08-01T04:24:33.390Z,12.97
2022-08-01T04:25:05.321Z,13.33
2022-08-01T04:25:34.297Z,13.33
2022-08-01T04:25:53.550Z,13.33
2022-08-01T04:26:25.443Z,13.82
2022-08-01T04:26:42.318Z,13.82
2022-08-01T04:27:13.843Z,13.82
2022-08-01T04:27:49.864Z,15.17
2022-08-01T04:28:03.574Z,15.17
2022-08-01T04:28:34.450Z,15.17
2022-08-01T04:29:06.204Z,16.02
2022-08-01T04:29:35.041Z,16.02
2022-08-01T04:29:58.624Z,16.88
2022-08-01T04:30:25.478Z,16.88
2022-08-01T04:30:42.709Z,16.88
2022-08-01T04:31:14.729Z,18.11
2022-08-01T04:31:34.366Z,17.73
2022-08-01T04:32:03.088Z,18.11
2022-08-01T04:32:33.443Z,19.08
2022-08-01T04:33:06.785Z,19.45
2022-08-01T04:33:34.419Z,19.45
2022-08-01T04:33:53.342Z,20.31
2022-08-01T04:34:25.960Z,20.31
2022-08-01T04:34:58.079Z,20.80
2022-08-01T04:36:03.566Z,21.16
2022-08-01T04:36:17.328Z,21.16
2022-08-01T04:36:49.641Z,21.16
2022-08-01T04:37:21.538Z,21.65
2022-08-01T04:37:38.400Z,22.02
2022-08-01T04:38:09.435Z,21.16
2022-08-01T04:38:34.350Z,20.80
2022-08-01T04:38:57.432Z,21.16
2022-08-01T04:39:29.912Z,20.80
2022-08-01T04:40:01.920Z,20.31
2022-08-01T04:40:33.577Z,19.45
2022-08-01T04:41:09.230Z,19.08
2022-08-01T04:41:34.288Z,19.45
2022-08-01T04:41:53.308Z,19.45
2022-08-01T04:42:28.108Z,18.60
2022-08-01T04:42:42.647Z,18.11
2022-08-01T04:43:14.901Z,18.60
2022-08-01T04:43:34.292Z,19.45
2022-08-01T04:44:01.874Z,18.60
2022-08-01T04:44:40.208Z,18.60
2022-08-01T04:45:05.415Z,19.45
2022-08-01T04:45:35.340Z,19.94
2022-08-01T04:45:53.327Z,19.45
2022-08-01T04:46:25.283Z,19.45
2022-08-01T04:46:42.816Z,20.31
2022-08-01T04:47:14.233Z,20.31
2022-08-01T04:47:34.440Z,19.94
2022-08-01T04:48:02.806Z,21.16
2022-08-01T04:48:34.286Z,21.65
2022-08-01T04:49:05.464Z,22.51
2022-08-01T04:49:48.981Z,22.51
2022-08-01T04:50:09.306Z,23.36
2022-08-01T04:50:34.353Z,24.71
2022-08-01T04:50:57.434Z,25.07
2022-08-01T04:51:29.313Z,25.56
2022-08-01T04:52:01.866Z,26.42
2022-08-01T04:52:33.407Z,26.79
2022-08-01T04:53:05.642Z,26.79
2022-08-01T04:53:35.313Z,26.42
2022-08-01T04:53:53.338Z,26.79
2022-08-01T04:54:25.293Z,26.42
2022-08-01T04:54:42.540Z,26.42
2022-08-01T04:55:13.299Z,26.79
2022-08-01T04:55:34.256Z,27.65
2022-08-01T04:56:01.908Z,27.28
2022-08-01T04:56:33.403Z,27.65
2022-08-01T04:57:05.334Z,27.65
2022-08-01T04:57:34.407Z,28.99
2022-08-01T04:57:58.337Z,29.85
2022-08-01T04:58:27.122Z,29.85
2022-08-01T04:58:59.490Z,31.56
2022-08-01T04:59:29.424Z,31.56
2022-08-01T05:00:02.839Z,32.90
2022-08-01T05:00:35.083Z,33.39
2022-08-01T05:01:05.325Z,34.62
2022-08-01T05:01:36.409Z,35.48
2022-08-01T05:02:09.430Z,38.17
2022-08-01T05:02:35.351Z,39.02
2022-08-01T05:02:57.433Z,39.88
2022-08-01T05:03:38.681Z,41.10
2022-08-01T05:04:02.967Z,40.24
2022-08-01T05:04:34.588Z,40.24
2022-08-01T05:05:07.004Z,40.24
2022-08-01T05:05:34.277Z,40.73
2022-08-01T05:05:53.293Z,40.73
2022-08-01T05:06:25.287Z,41.59
2022-08-01T05:06:57.493Z,42.94
2022-08-01T05:07:29.383Z,44.65
2022-08-01T05:08:01.990Z,46.36
2022-08-01T05:08:33.400Z,48.07
2022-08-01T05:09:10.444Z,50.65
2022-08-01T05:09:34.404Z,51.99
2022-08-01T05:09:53.458Z,54.56
2022-08-01T05:10:25.314Z,57.62
2022-08-01T05:10:42.849Z,58.97
2022-08-01T05:11:13.437Z,61.53
2022-08-01T05:11:34.319Z,63.24
2022-08-01T05:12:01.640Z,64.59
2022-08-01T05:12:33.366Z,67.16
2022-08-01T05:13:05.574Z,68.51
2022-08-01T05:13:34.437Z,68.87
2022-08-01T05:13:54.024Z,71.07
2022-08-01T05:14:25.494Z,72.42
2022-08-01T05:14:42.327Z,73.65
2022-08-01T05:15:15.666Z,74.50
2022-08-01T05:15:34.264Z,75.85
2022-08-01T05:16:01.747Z,77.56
2022-08-01T05:16:34.284Z,77.19
2022-08-01T05:17:06.370Z,78.05
2022-08-01T05:17:35.059Z,78.05
2022-08-01T05:17:53.258Z,78.05
2022-08-01T05:18:27.729Z,78.41
2022-08-01T05:18:58.225Z,77.56
2022-08-01T05:19:29.300Z,76.70
2022-08-01T05:20:01.633Z,74.99
2022-08-01T05:20:34.612Z,73.28
2022-08-01T05:21:06.249Z,70.71
2022-08-01T05:21:36.436Z,69.36
2022-08-01T05:22:09.280Z,65.45
2022-08-01T05:22:34.337Z,64.10
2022-08-01T05:22:57.293Z,62.39
2022-08-01T05:23:42.172Z,62.39
2022-08-01T05:24:03.282Z,61.17
2022-08-01T05:24:33.647Z,59.82
2022-08-01T05:25:05.360Z,59.82
2022-08-01T05:25:57.964Z,59.82
2022-08-01T05:26:11.077Z,58.97
2022-08-01T05:26:35.137Z,58.48
2022-08-01T05:26:57.289Z,57.62
2022-08-01T05:27:29.328Z,56.76
2022-08-01T05:28:01.820Z,56.76
2022-08-01T05:28:33.374Z,56.76
2022-08-01T05:29:05.303Z,56.27
2022-08-01T05:29:34.294Z,55.90
2022-08-01T05:29:53.172Z,55.90
2022-08-01T05:30:25.329Z,57.25
2022-08-01T05:30:57.406Z,56.27
2022-08-01T05:31:34.493Z,58.11
2022-08-01T05:32:05.108Z,58.97
2022-08-01T05:32:34.420Z,59.82
2022-08-01T05:33:05.328Z,59.82
2022-08-01T05:33:34.531Z,60.19
2022-08-01T05:33:53.276Z,59.82
2022-08-01T05:34:25.279Z,60.19
2022-08-01T05:34:42.540Z,60.68
2022-08-01T05:35:13.352Z,60.19
2022-08-01T05:35:48.705Z,61.17
2022-08-01T05:36:01.819Z,61.53
2022-08-01T05:36:33.396Z,63.73
2022-08-01T05:37:07.261Z,64.59
2022-08-01T05:37:35.065Z,65.94
2022-08-01T05:37:55.224Z,68.51
2022-08-01T05:38:25.493Z,71.07
2022-08-01T05:38:57.670Z,73.28
2022-08-01T05:39:29.329Z,76.34
2022-08-01T05:40:01.902Z,79.27
2022-08-01T05:40:34.424Z,82.33
2022-08-01T05:41:05.861Z,87.10
2022-08-01T05:41:34.337Z,87.59
2022-08-01T05:41:54.086Z,87.96
2022-08-01T05:42:25.422Z,90.16
2022-08-01T05:42:43.308Z,90.65
2022-08-01T05:43:13.393Z,91.51
2022-08-01T05:43:34.423Z,91.51
2022-08-01T05:44:02.930Z,93.58
2022-08-01T05:44:34.143Z,95.79
2022-08-01T05:45:05.443Z,99.70
2022-08-01T05:45:34.418Z,99.70
2022-08-01T05:45:53.247Z,102.76
2022-08-01T05:46:26.214Z,103.13
2022-08-01T05:46:44.165Z,104.10
2022-08-01T05:47:13.961Z,107.53
2022-08-01T05:47:34.417Z,111.82
2022-08-01T05:48:01.663Z,119.27
2022-08-01T05:48:33.530Z,112.30
2022-08-01T05:49:06.644Z,132.73
2022-08-01T05:49:34.614Z,134.44
2022-08-01T05:49:53.536Z,143.50
2022-08-01T05:50:25.517Z,133.95
2022-08-01T05:50:43.253Z,126.12
2022-08-01T05:51:13.449Z,158.67
2022-08-01T05:51:34.438Z,159.16
2022-08-01T05:52:03.647Z,159.16
2022-08-01T05:52:33.460Z,160.51
2022-08-01T05:53:05.406Z,162.58
2022-08-01T05:53:35.455Z,162.22
2022-08-01T05:54:09.383Z,142.27
2022-08-01T05:54:34.553Z,149.61
2022-08-01T05:54:57.398Z,149.61
2022-08-01T05:55:29.435Z,135.30
2022-08-01T05:56:02.071Z,134.81
2022-08-01T05:56:35.235Z,133.95
2022-08-01T05:57:05.244Z,85.39
2022-08-01T05:57:34.318Z,91.02
2022-08-01T05:57:53.338Z,78.41
2022-08-01T05:58:25.216Z,74.50
2022-08-01T05:58:57.214Z,73.65
2022-08-01T05:59:29.295Z,70.22
2022-08-01T06:00:03.059Z,67.65
2022-08-01T06:00:33.450Z,65.45
2022-08-01T06:01:05.257Z,64.96
2022-08-01T06:01:34.346Z,65.45
2022-08-01T06:01:53.278Z,74.50
2022-08-01T06:02:28.022Z,69.36
2022-08-01T06:02:57.192Z,73.28
2022-08-01T06:03:29.329Z,74.99
2022-08-01T06:04:01.901Z,71.93
2022-08-01T06:04:33.363Z,70.71
2022-08-01T06:05:05.252Z,68.87
2022-08-01T06:05:34.301Z,68.87
2022-08-01T06:05:53.245Z,69.73
2022-08-01T06:06:25.645Z,70.71
2022-08-01T06:06:43.096Z,70.71
2022-08-01T06:07:13.320Z,71.07
2022-08-01T06:07:35.098Z,70.22
2022-08-01T06:08:01.556Z,70.71
2022-08-01T06:08:34.222Z,69.36
2022-08-01T06:09:05.265Z,69.36
2022-08-01T06:09:35.739Z,68.51
2022-08-01T06:09:53.120Z,67.65
2022-08-01T06:10:25.283Z,67.16
2022-08-01T06:10:57.361Z,66.80
2022-08-01T06:11:29.188Z,66.80
2022-08-01T06:12:01.549Z,66.31